createdAt,value
2022-08-11T00:02:30.769Z,282.30
2022-08-11T00:04:59.416Z,272.07
2022-08-11T00:07:43.680Z,273.93
2022-08-11T00:10:13.509Z,278.43
2022-08-11T00:12:43.639Z,273.00
2022-08-11T00:15:13.127Z,269.17
2022-08-11T00:17:41.988Z,276.53
2022-08-11T00:20:16.501Z,271.13
2022-08-11T00:22:48.481Z,264.13
2022-08-11T00:25:18.976Z,275.27
2022-08-11T00:27:48.952Z,267.93
2022-08-11T00:30:17.820Z,268.43
2022-08-11T00:32:48.008Z,269.00
2022-08-11T00:35:56.047Z,263.80
2022-08-11T00:38:08.702Z,265.67
2022-08-11T00:40:41.379Z,266.60
2022-08-11T00:43:20.485Z,266.30
2022-08-11T00:46:07.860Z,266.77
2022-08-11T00:48:43.197Z,264.20
2022-08-11T00:51:16.836Z,263.80
2022-08-11T00:53:53.480Z,262.57
2022-08-11T00:57:05.015Z,262.83
2022-08-11T01:00:08.190Z,259.37
2022-08-11T01:03:06.783Z,257.67
2022-08-11T01:06:04.653Z,258.17
2022-08-11T01:09:22.337Z,258.77
2022-08-11T01:12:19.342Z,261.67
2022-08-11T01:15:40.237Z,252.47
2022-08-11T01:18:56.160Z,253.00
2022-08-11T01:22:08.266Z,254.57
2022-08-11T01:24:52.957Z,254.53
2022-08-11T01:27:44.780Z,257.97
2022-08-11T01:30:54.383Z,249.83
2022-08-11T01:34:13.852Z,250.20
2022-08-11T01:37:00.809Z,246.43
2022-08-11T01:40:18.877Z,256.03
2022-08-11T01:43:30.475Z,251.17
2022-08-11T01:46:01.615Z,248.57
2022-08-11T01:48:38.004Z,252.77
2022-08-11T01:51:30.249Z,255.00
2022-08-11T01:54:05.354Z,251.70
2022-08-11T01:56:58.804Z,252.50
2022-08-11T01:59:30.403Z,243.83
2022-08-11T02:02:45.908Z,243.03
2022-08-11T02:05:30.548Z,240.77
2022-08-11T02:08:06.744Z,242.43
2022-08-11T02:11:02.739Z,245.73
2022-08-11T02:13:44.714Z,239.53
2022-08-11T02:16:19.491Z,242.30
2022-08-11T02:19:09.695Z,245.47
2022-08-11T02:22:03.221Z,246.57
2022-08-11T02:24:36.613Z,246.30
2022-08-11T02:27:09.534Z,245.63
2022-08-11T02:29:47.220Z,243.73
2022-08-11T02:32:38.775Z,238.73
2022-08-11T02:35:15.744Z,238.43
2022-08-11T02:37:51.658Z,240.13
2022-08-11T02:40:25.933Z,241.23
2022-08-11T02:43:05.992Z,237.80
2022-08-11T02:45:41.812Z,239.83
2022-08-11T02:48:36.383Z,241.00
2022-08-11T02:51:14.899Z,237.13
2022-08-11T02:53:56.439Z,239.33
2022-08-11T02:56:36.539Z,233.43
2022-08-11T02:59:27.118Z,231.20
2022-08-11T03:02:00.734Z,231.73
2022-08-11T03:04:39.210Z,228.50
2022-08-11T03:07:28.989Z,236.43
2022-08-11T03:10:04.729Z,232.67
2022-08-11T03:12:59.671Z,233.43
2022-08-11T03:15:48.910Z,225.50
2022-08-11T03:18:26.841Z,232.60
2022-08-11T03:20:59.810Z,236.10
2022-08-11T03:23:31.379Z,233.20
2022-08-11T03:26:04.262Z,230.40
2022-08-11T03:28:36.045Z,223.40
2022-08-11T03:31:16.682Z,225.17
2022-08-11T03:34:07.253Z,230.50
2022-08-11T03:37:47.460Z,233.13
2022-08-11T03:40:40.439Z,229.43
2022-08-11T03:43:14.203Z,223.20
2022-08-11T03:45:57.307Z,226.17
2022-08-11T03:48:32.519Z,228.47
2022-08-11T03:51:09.347Z,228.63
2022-08-11T03:53:49.632Z,227.57
2022-08-11T03:56:40.612Z,224.13
2022-08-11T03:59:32.771Z,230.83
2022-08-11T04:02:25.524Z,229.60
2022-08-11T04:05:21.525Z,230.43
2022-08-11T04:08:21.741Z,226.57
2022-08-11T04:11:12.811Z,227.07
2022-08-11T04:14:19.931Z,231.27
2022-08-11T04:16:48.829Z,230.33
2022-08-11T04:19:39.849Z,238.23
2022-08-11T04:22:28.558Z,239.97
2022-08-11T04:25:30.840Z,251.73
2022-08-11T04:28:29.032Z,249.30
2022-08-11T04:31:10.071Z,249.63
2022-08-11T04:33:56.561Z,245.60
2022-08-11T04:37:04.540Z,252.93
2022-08-11T04:39:49.676Z,248.57
2022-08-11T04:43:07.168Z,252.70
2022-08-11T04:45:49.785Z,245.57
2022-08-11T04:48:54.904Z,245.30
2022-08-11T04:52:00.609Z,247.40
2022-08-11T04:54:59.913Z,243.77
2022-08-11T04:57:54.207Z,246.83
2022-08-11T05:00:43.638Z,250.00
2022-08-11T05:03:44.704Z,248.27
2022-08-11T05:06:50.429Z,252.27
2022-08-11T05:09:24.645Z,252.13
2022-08-11T05:12:20.157Z,261.53
2022-08-11T05:15:08.823Z,239.07
2022-08-11T05:17:57.238Z,237.43
2022-08-11T05:20:49.999Z,229.57
2022-08-11T05:23:37.589Z,232.73
2022-08-11T05:26:46.808Z,229.10
2022-08-11T05:29:57.525Z,227.27
2022-08-11T05:32:44.355Z,239.30
2022-08-11T05:35:59.793Z,236.93
2022-08-11T05:38:19.258Z,248.60
2022-08-11T05:41:07.771Z,243.87
2022-08-11T05:44:19.912Z,256.43
2022-08-11T05:47:01.213Z,244.43
2022-08-11T05:49:49.899Z,253.67
2022-08-11T05:52:40.662Z,249.50
2022-08-11T05:55:29.646Z,260.47
2022-08-11T05:57:58.976Z,253.80
2022-08-11T06:00:27.503Z,254.50
2022-08-11T06:03:00.885Z,252.23
2022-08-11T06:05:38.428Z,259.03
2022-08-11T06:08:13.763Z,250.73
2022-08-11T06:10:43.370Z,247.07
2022-08-11T06:13:12.581Z,243.97
2022-08-11T06:15:46.560Z,249.47
2022-08-11T06:18:16.845Z,239.63
2022-08-11T06:20:49.656Z,244.07
2022-08-11T06:23:19.471Z,256.17
2022-08-11T06:25:48.728Z,241.10
2022-08-11T06:28:20.740Z,246.70
2022-08-11T06:30:50.128Z,243.83
2022-08-11T06:33:22.823Z,249.33
2022-08-11T06:36:00.234Z,261.80
2022-08-11T06:38:54.277Z,260.03
2022-08-11T06:41:33.604Z,263.50
2022-08-11T06:44:10.284Z,264.60
2022-08-11T06:46:40.364Z,257.40
2022-08-11T06:49:31.202Z,258.23
2022-08-11T06:52:01.771Z,259.77
2022-08-11T06:54:33.790Z,271.20
2022-08-11T06:57:35.717Z,273.07
2022-08-11T07:00:23.801Z,271.10
2022-08-11T07:02:54.667Z,271.00
2022-08-11T07:05:28.124Z,277.73
2022-08-11T07:08:40.027Z,267.00
2022-08-11T07:11:39.488Z,274.03
2022-08-11T07:14:25.954Z,277.60
2022-08-11T07:16:54.733Z,272.73
2022-08-11T07:19:45.791Z,280.27
2022-08-11T07:22:29.770Z,294.87
2022-08-11T07:25:19.829Z,277.30
2022-08-11T07:28:07.182Z,274.50
2022-08-11T07:30:39.795Z,278.10
2022-08-11T07:33:08.528Z,275.73
2022-08-11T07:35:38.683Z,283.63
2022-08-11T07:38:12.591Z,286.07
2022-08-11T07:40:46.212Z,278.63
2022-08-11T07:43:14.843Z,288.83
2022-08-11T07:46:10.124Z,283.77
2022-08-11T07:48:55.549Z,280.73
2022-08-11T07:51:41.338Z,291.83
2022-08-11T07:54:16.937Z,285.33
2022-08-11T07:56:54.709Z,285.00
2022-08-11T08:00:03.893Z,285.37
2022-08-11T08:02:58.648Z,309.50
2022-08-11T08:05:44.546Z,302.53
2022-08-11T08:08:32.581Z,299.70
2022-08-11T08:11:23.975Z,309.93
2022-08-11T08:14:13.299Z,316.13
2022-08-11T08:16:59.285Z,327.57
2022-08-11T08:19:27.584Z,328.60
2022-08-11T08:22:38.404Z,344.87
2022-08-11T08:24:44.247Z,335.17
2022-08-11T08:27:14.797Z,338.97
2022-08-11T08:30:01.128Z,337.57
2022-08-11T08:32:29.938Z,342.23
2022-08-11T08:34:58.673Z,356.57
2022-08-11T08:37:45.323Z,348.77
2022-08-11T08:40:16.505Z,370.53
2022-08-11T08:42:51.821Z,376.93
2022-08-11T08:45:20.436Z,381.97
2022-08-11T08:47:53.779Z,377.43
2022-08-11T08:50:27.741Z,381.43
2022-08-11T08:53:00.840Z,386.47
2022-08-11T08:55:30.259Z,387.03
2022-08-11T08:58:01.200Z,396.67
2022-08-11T09:00:40.425Z,411.43
2022-08-11T09:03:36.452Z,389.80
2022-08-11T09:05:58.429Z,386.70
2022-08-11T09:08:27.547Z,411.97
2022-08-11T09:11:13.833Z,422.67
2022-08-11T09:13:44.725Z,413.90
2022-08-11T09:16:13.206Z,430.63
2022-08-11T09:18:44.571Z,403.57
2022-08-11T09:21:14.740Z,433.17
2022-08-11T09:24:26.016Z,425.67
2022-08-11T09:27:01.109Z,421.63
2022-08-11T09:29:31.252Z,399.57
2022-08-11T09:32:00.335Z,392.43
2022-08-11T09:34:28.729Z,437.07
2022-08-11T09:37:28.786Z,444.50
2022-08-11T09:40:30.864Z,425.47
2022-08-11T09:43:18.189Z,427.27
2022-08-11T09:45:51.409Z,435.93
2022-08-11T09:48:20.081Z,438.43
2022-08-11T09:50:49.899Z,433.27
2022-08-11T09:53:36.414Z,445.87
2022-08-11T09:56:22.927Z,404.77
2022-08-11T09:58:51.301Z,429.17
2022-08-11T10:01:28.109Z,456.27
2022-08-11T10:04:04.715Z,425.50
2022-08-11T10:06:53.951Z,428.97
2022-08-11T10:09:25.364Z,418.70
2022-08-11T10:11:58.243Z,427.67
2022-08-11T10:14:45.679Z,427.27
2022-08-11T10:17:16.318Z,424.03
2022-08-11T10:20:01.963Z,433.33
2022-08-11T10:22:53.459Z,444.53
2022-08-11T10:25:39.934Z,437.27
2022-08-11T10:28:30.648Z,439.50
2022-08-11T10:31:16.411Z,435.50
2022-08-11T10:34:03.722Z,435.03
2022-08-11T10:36:34.313Z,455.37
2022-08-11T10:39:04.184Z,447.43
2022-08-11T10:42:07.265Z,447.33
2022-08-11T10:44:39.549Z,438.83
2022-08-11T10:47:26.074Z,461.70
2022-08-11T10:50:10.459Z,451.90
2022-08-11T10:52:56.437Z,440.50
2022-08-11T10:55:42.565Z,447.67
2022-08-11T10:58:28.868Z,430.53
2022-08-11T11:00:58.906Z,433.60
2022-08-11T11:03:27.898Z,444.73
2022-08-11T11:06:27.422Z,451.47
2022-08-11T11:09:00.165Z,452.20
2022-08-11T11:11:53.159Z,461.77
2022-08-11T11:14:46.084Z,453.33
2022-08-11T11:17:39.802Z,446.80
2022-08-11T11:20:09.687Z,455.60
2022-08-11T11:23:05.209Z,447.10
2022-08-11T11:25:42.374Z,446.27
2022-08-11T11:28:21.272Z,464.27
2022-08-11T11:31:00.061Z,462.47
2022-08-11T11:34:06.734Z,445.37
2022-08-11T11:36:36.038Z,458.23
2022-08-11T11:39:05.741Z,446.90
2022-08-11T11:41:34.060Z,461.03
2022-08-11T11:44:02.586Z,459.60
2022-08-11T11:46:31.680Z,438.47
2022-08-11T11:49:10.720Z,448.23
2022-08-11T11:51:46.089Z,463.03
2022-08-11T11:54:21.255Z,452.57
2022-08-11T11:56:51.289Z,473.93
2022-08-11T11:59:36.788Z,474.20
2022-08-11T12:02:11.700Z,468.53
2022-08-11T12:04:43.094Z,468.93
2022-08-11T12:07:28.980Z,471.37
2022-08-11T12:09:59.072Z,475.90
2022-08-11T12:12:45.133Z,445.13
2022-08-11T12:15:13.450Z,465.67
2022-08-11T12:17:41.868Z,453.90
2022-08-11T12:20:32.155Z,466.27
2022-08-11T12:23:16.578Z,458.73
2022-08-11T12:26:25.815Z,463.63
2022-08-11T12:28:52.456Z,453.53
2022-08-11T12:31:22.967Z,461.27
2022-08-11T12:33:51.339Z,467.27
2022-08-11T12:36:20.564Z,466.90
2022-08-11T12:38:51.454Z,468.07
2022-08-11T12:41:40.063Z,450.90
2022-08-11T12:44:36.610Z,467.50
2022-08-11T12:47:05.571Z,464.57
2022-08-11T12:49:54.632Z,462.87
2022-08-11T12:52:25.470Z,468.30
2022-08-11T12:54:59.854Z,471.83
2022-08-11T12:57:50.982Z,472.73
2022-08-11T13:00:38.169Z,470.63
2022-08-11T13:03:26.203Z,462.87
2022-08-11T13:05:56.166Z,478.07
2022-08-11T13:08:25.940Z,488.13
2022-08-11T13:11:14.443Z,472.60
2022-08-11T13:13:52.346Z,459.23
2022-08-11T13:16:24.597Z,474.57
2022-08-11T13:18:53.651Z,463.83
2022-08-11T13:21:22.671Z,464.97
2022-08-11T13:23:59.526Z,458.13
2022-08-11T13:26:47.050Z,469.27
2022-08-11T13:29:22.170Z,464.20
2022-08-11T13:31:51.348Z,471.83
2022-08-11T13:34:20.815Z,467.20
2022-08-11T13:36:52.157Z,468.33
2022-08-11T13:39:24.274Z,462.93
2022-08-11T13:41:53.529Z,477.37
2022-08-11T13:44:26.072Z,468.80
2022-08-11T13:47:00.830Z,483.27
2022-08-11T13:49:29.272Z,471.53
2022-08-11T13:51:58.746Z,464.40
2022-08-11T13:54:30.021Z,452.73
2022-08-11T13:57:02.588Z,470.40
2022-08-11T13:59:32.334Z,467.63
2022-08-11T14:02:22.318Z,468.30
2022-08-11T14:05:00.228Z,466.07
2022-08-11T14:07:34.723Z,471.90
2022-08-11T14:10:05.474Z,459.40
2022-08-11T14:12:53.579Z,475.10
2022-08-11T14:15:25.266Z,460.97
2022-08-11T14:17:56.793Z,461.17
2022-08-11T14:20:45.417Z,462.20
2022-08-11T14:23:14.309Z,461.60
2022-08-11T14:26:03.816Z,463.83
2022-08-11T14:28:40.284Z,466.20
2022-08-11T14:31:19.734Z,471.67
2022-08-11T14:34:32.581Z,473.63
2022-08-11T14:37:03.458Z,467.20
2022-08-11T14:39:36.222Z,473.77
2022-08-11T14:42:24.229Z,462.47
2022-08-11T14:45:17.114Z,471.17
2022-08-11T14:47:49.756Z,464.30
2022-08-11T14:50:23.148Z,462.20
2022-08-11T14:52:52.353Z,474.10
2022-08-11T14:55:39.008Z,470.10
2022-08-11T14:58:10.458Z,459.60
2022-08-11T15:00:39.986Z,469.00
2022-08-11T15:03:11.835Z,463.70
2022-08-11T15:05:54.316Z,472.07
2022-08-11T15:08:48.908Z,471.93
2022-08-11T15:11:35.957Z,460.17
2022-08-11T15:14:06.365Z,459.80
2022-08-11T15:16:52.381Z,481.50
2022-08-11T15:19:22.541Z,464.37
2022-08-11T15:22:08.894Z,474.00
2022-08-11T15:24:38.079Z,460.70
2022-08-11T15:27:27.235Z,474.00
2022-08-11T15:30:26.855Z,463.87
2022-08-11T15:33:22.202Z,454.57
2022-08-11T15:36:09.893Z,463.20
2022-08-11T15:38:43.171Z,476.97
2022-08-11T15:41:32.760Z,473.37
2022-08-11T15:44:19.225Z,461.13
2022-08-11T15:46:50.397Z,475.83
2022-08-11T15:49:24.835Z,464.93
2022-08-11T15:52:18.679Z,469.83
2022-08-11T15:54:48.659Z,474.53
2022-08-11T15:57:31.199Z,478.37
2022-08-11T16:00:28.413Z,469.27
2022-08-11T16:03:16.381Z,471.37
2022-08-11T16:05:53.005Z,466.20
2022-08-11T16:08:27.946Z,477.20
2022-08-11T16:11:07.763Z,469.97
2022-08-11T16:13:57.277Z,468.63
2022-08-11T16:16:25.548Z,460.40
2022-08-11T16:18:56.688Z,465.43
2022-08-11T16:21:34.937Z,460.03
2022-08-11T16:26:30.482Z,475.23
2022-08-11T16:27:13.748Z,463.60
2022-08-11T16:29:45.661Z,467.10
2022-08-11T16:32:22.142Z,469.47
2022-08-11T16:35:14.454Z,470.20
2022-08-11T16:38:00.850Z,476.43
2022-08-11T16:40:32.279Z,469.97
2022-08-11T16:43:18.731Z,476.20
2022-08-11T16:46:05.274Z,468.50
2022-08-11T16:48:38.196Z,469.37
2022-08-11T16:51:07.798Z,468.40
2022-08-11T16:54:00.104Z,474.33
2022-08-11T16:56:30.672Z,463.87
2022-08-11T16:59:16.329Z,476.90
2022-08-11T17:01:48.760Z,463.87
2022-08-11T17:04:46.627Z,479.10
2022-08-11T17:07:41.721Z,451.93
2022-08-11T17:10:50.319Z,457.80
2022-08-11T17:13:27.478Z,453.90
2022-08-11T17:16:11.992Z,468.07
2022-08-11T17:18:51.746Z,462.03
2022-08-11T17:21:22.322Z,462.00
2022-08-11T17:23:52.928Z,459.60
2022-08-11T17:26:25.157Z,465.50
2022-08-11T17:28:59.236Z,472.20
2022-08-11T17:31:46.224Z,459.73
2022-08-11T17:34:32.626Z,458.70
2022-08-11T17:37:01.402Z,451.70
2022-08-11T17:39:32.267Z,460.47
2022-08-11T17:42:19.485Z,460.67
2022-08-11T17:45:07.770Z,444.40
2022-08-11T17:47:53.642Z,448.67
2022-08-11T17:50:22.419Z,451.03
2022-08-11T17:53:08.980Z,452.80
2022-08-11T17:55:55.925Z,451.70
2022-08-11T17:58:44.448Z,451.50
2022-08-11T18:01:14.504Z,444.70
2022-08-11T18:03:53.240Z,446.57
2022-08-11T18:06:34.322Z,444.60
2022-08-11T18:09:23.546Z,446.30
2022-08-11T18:12:12.776Z,442.60
2022-08-11T18:15:02.955Z,447.43
2022-08-11T18:17:50.672Z,433.63
2022-08-11T18:20:37.315Z,425.30
2022-08-11T18:23:46.258Z,425.37
2022-08-11T18:26:34.479Z,425.43
2022-08-11T18:29:21.025Z,424.57
2022-08-11T18:32:08.705Z,418.23
2022-08-11T18:34:59.401Z,416.20
2022-08-11T18:37:47.369Z,403.60
2022-08-11T18:40:35.489Z,405.30
2022-08-11T18:43:27.486Z,399.27
2022-08-11T18:46:18.641Z,392.73
2022-08-11T18:49:15.430Z,385.93
2022-08-11T18:52:06.134Z,376.60
2022-08-11T18:54:54.144Z,369.77
2022-08-11T18:57:49.861Z,362.33
2022-08-11T19:00:41.793Z,366.60
2022-08-11T19:03:29.273Z,366.37
2022-08-11T19:06:39.134Z,366.97
2022-08-11T19:09:29.855Z,359.80
2022-08-11T19:12:16.072Z,353.30
2022-08-11T19:15:02.683Z,352.37
2022-08-11T19:17:49.969Z,350.90
2022-08-11T19:20:36.895Z,342.37
2022-08-11T19:23:25.856Z,343.57
2022-08-11T19:26:13.710Z,338.73
2022-08-11T19:29:05.228Z,339.57
2022-08-11T19:31:51.947Z,342.17
2022-08-11T19:34:40.670Z,328.47
2022-08-11T19:37:27.855Z,329.57
2022-08-11T19:40:17.316Z,327.67
2022-08-11T19:43:16.828Z,333.87
2022-08-11T19:46:11.502Z,326.07
2022-08-11T19:48:57.716Z,323.90
2022-08-11T19:51:43.987Z,317.40
2022-08-11T19:54:30.196Z,323.00
2022-08-11T19:57:16.066Z,316.97
2022-08-11T20:00:03.414Z,315.07
2022-08-11T20:02:49.925Z,309.67
2022-08-11T20:05:36.401Z,319.30
2022-08-11T20:08:23.573Z,317.43
2022-08-11T20:11:09.738Z,320.57
2022-08-11T20:13:57.603Z,333.57
2022-08-11T20:16:45.794Z,326.27
2022-08-11T20:19:55.319Z,316.80
2022-08-11T20:22:39.123Z,324.20
2022-08-11T20:25:25.823Z,321.40
2022-08-11T20:28:12.917Z,315.87
2022-08-11T20:30:59.712Z,316.77
2022-08-11T20:33:47.260Z,311.33
2022-08-11T20:36:34.316Z,307.93
2022-08-11T20:39:21.081Z,314.10
2022-08-11T20:42:07.926Z,311.93
2022-08-11T20:44:56.191Z,309.63
2022-08-11T20:47:58.839Z,317.27
2022-08-11T20:50:47.949Z,306.03
2022-08-11T20:53:36.112Z,300.97
2022-08-11T20:56:28.795Z,314.57
2022-08-11T20:59:18.374Z,313.47
2022-08-11T21:02:10.110Z,301.43
2022-08-11T21:04:57.616Z,303.83
2022-08-11T21:07:55.319Z,304.67
2022-08-11T21:10:46.896Z,303.97
2022-08-11T21:13:34.299Z,304.00
2022-08-11T21:16:26.207Z,297.50
2022-08-11T21:19:16.517Z,296.20
2022-08-11T21:22:03.932Z,296.43
2022-08-11T21:24:52.214Z,307.70
2022-08-11T21:27:39.422Z,293.30
2022-08-11T21:30:26.559Z,291.27
2022-08-11T21:33:14.012Z,295.43
2022-08-11T21:36:00.727Z,297.70
2022-08-11T21:38:47.217Z,289.27
2022-08-11T21:41:34.831Z,304.60
2022-08-11T21:44:20.866Z,292.40
2022-08-11T21:47:07.384Z,296.20
2022-08-11T21:49:53.604Z,294.97
2022-08-11T21:52:39.856Z,288.70
2022-08-11T21:55:27.158Z,271.77
2022-08-11T21:58:15.013Z,279.93
2022-08-11T22:01:01.497Z,283.23
2022-08-11T22:03:50.365Z,283.33
2022-08-11T22:06:36.904Z,270.53
2022-08-11T22:09:23.031Z,282.60
2022-08-11T22:12:35.197Z,279.47
2022-08-11T22:15:16.758Z,275.17
2022-08-11T22:18:02.910Z,280.37
2022-08-11T22:20:48.990Z,276.07
2022-08-11T22:23:37.014Z,283.20
2022-08-11T22:26:24.310Z,288.27
2022-08-11T22:29:10.540Z,292.00
2022-08-11T22:31:58.619Z,292.60
2022-08-11T22:34:52.722Z,286.10
2022-08-11T22:37:39.921Z,284.53
2022-08-11T22:40:27.534Z,282.33
2022-08-11T22:43:13.449Z,281.70
2022-08-11T22:45:59.476Z,284.07
2022-08-11T22:48:48.223Z,282.43
2022-08-11T22:51:35.689Z,276.43
2022-08-11T22:54:22.725Z,269.57
2022-08-11T22:57:08.853Z,272.03
2022-08-11T22:59:55.903Z,279.00
2022-08-11T23:02:41.955Z,279.07
2022-08-11T23:05:29.784Z,273.70
2022-08-11T23:08:15.975Z,273.23
2022-08-11T23:11:02.274Z,271.37
2022-08-11T23:13:49.806Z,279.97
2022-08-11T23:16:36.690Z,279.00
2022-08-11T23:20:11.268Z,278.10
2022-08-11T23:22:49.378Z,269.83
2022-08-11T23:25:35.261Z,277.30
2022-08-11T23:28:21.944Z,268.20
2022-08-11T23:31:09.754Z,282.57
2022-08-11T23:33:56.190Z,266.37
2022-08-11T23:36:47.863Z,275.53
2022-08-11T23:39:35.818Z,270.67
2022-08-11T23:42:22.544Z,281.97
2022-08-11T23:45:13.179Z,267.33
2022-08-11T23:48:00.118Z,268.90
2022-08-11T23:50:46.822Z,268.17
2022-08-11T23:53:32.819Z,259.00
2022-08-11T23:56:21.959Z,259.37
2022-08-11T23:59:09.128Z,265.97
